sensor_id;sensor_type;location;lat;lon;timestamp;pressure;altitude;pressure_sealevel;temperature;humidity
82327;BME280;71931;47.442;18.914;2023-07-31T17:08:21;99485.97;;;26.49;34.78
82327;BME280;71931;47.442;18.914;2023-07-31T17:10:46;99482.69;;;26.44;35.24
82327;BME280;71931;47.442;18.914;2023-07-31T17:13:12;99497.81;;;26.41;35.09
82327;BME280;71931;47.442;18.914;2023-07-31T17:15:38;99497.81;;;26.41;35.74
82327;BME280;71931;47.442;18.914;2023-07-31T17:18:03;99497.81;;;26.41;35.77
82327;BME280;71931;47.442;18.914;2023-07-31T17:20:29;99498.97;;;26.34;35.52
82327;BME280;71931;47.442;18.914;2023-07-31T17:22:57;99501.59;;;26.35;35.95
82327;BME280;71931;47.442;18.914;2023-07-31T17:25:22;99500.63;;;26.36;36.00
82327;BME280;71931;47.442;18.914;2023-07-31T17:27:47;99501.63;;;26.34;36.17
82327;BME280;71931;47.442;18.914;2023-07-31T17:30:13;99506.91;;;26.34;36.12
82327;BME280;71931;47.442;18.914;2023-07-31T17:32:38;99512.16;;;26.35;36.51
82327;BME280;71931;47.442;18.914;2023-07-31T17:35:04;99513.03;;;26.36;36.99
82327;BME280;71931;47.442;18.914;2023-07-31T17:37:30;99506.88;;;26.35;36.82
82327;BME280;71931;47.442;18.914;2023-07-31T17:39:55;99511.19;;;26.38;36.18
82327;BME280;71931;47.442;18.914;2023-07-31T17:42:20;99509.53;;;26.35;36.16
82327;BME280;71931;47.442;18.914;2023-07-31T17:44:46;99515.78;;;26.33;36.62
82327;BME280;71931;47.442;18.914;2023-07-31T17:47:11;99510.63;;;26.30;36.58
82327;BME280;71931;47.442;18.914;2023-07-31T17:49:36;99505.31;;;26.30;37.45
82327;BME280;71931;47.442;18.914;2023-07-31T17:52:02;99501.88;;;26.28;37.78
82327;BME280;71931;47.442;18.914;2023-07-31T17:54:27;99500.28;;;26.24;38.57
82327;BME280;71931;47.442;18.914;2023-07-31T17:56:53;99495.00;;;26.24;36.80
82327;BME280;71931;47.442;18.914;2023-07-31T17:59:19;99493.31;;;26.21;37.10
82327;BME280;71931;47.442;18.914;2023-07-31T18:01:44;99495.28;;;26.16;37.67
82327;BME280;71931;47.442;18.914;2023-07-31T18:04:10;99492.66;;;26.16;37.26
82327;BME280;71931;47.442;18.914;2023-07-31T18:06:36;99501.63;;;26.12;37.48
82327;BME280;71931;47.442;18.914;2023-07-31T18:09:02;99502.81;;;26.03;37.36
82327;BME280;71931;47.442;18.914;2023-07-31T18:11:27;99512.59;;;26.01;37.76
82327;BME280;71931;47.442;18.914;2023-07-31T18:13:55;99512.53;;;26.03;37.50
82327;BME280;71931;47.442;18.914;2023-07-31T18:16:20;99511.84;;;25.98;38.16
82327;BME280;71931;47.442;18.914;2023-07-31T18:18:46;99512.09;;;25.92;38.20
82327;BME280;71931;47.442;18.914;2023-07-31T18:21:11;99516.81;;;25.84;38.38
82327;BME280;71931;47.442;18.914;2023-07-31T18:23:36;99509.13;;;25.78;38.98
82327;BME280;71931;47.442;18.914;2023-07-31T18:26:01;99515.59;;;25.69;38.86
82327;BME280;71931;47.442;18.914;2023-07-31T18:28:27;99514.06;;;25.64;40.05
82327;BME280;71931;47.442;18.914;2023-07-31T18:30:57;99515.47;;;25.49;40.37
82327;BME280;71931;47.442;18.914;2023-07-31T18:33:22;99521.06;;;25.40;40.75
82327;BME280;71931;47.442;18.914;2023-07-31T18:35:48;99521.06;;;25.40;41.24
82327;BME280;71931;47.442;18.914;2023-07-31T18:38:13;99522.56;;;25.24;41.21
82327;BME280;71931;47.442;18.914;2023-07-31T18:40:38;99523.72;;;25.15;40.44
82327;BME280;71931;47.442;18.914;2023-07-31T18:43:03;99529.19;;;25.11;40.81
82327;BME280;71931;47.442;18.914;2023-07-31T18:45:29;99525.88;;;25.04;40.60
82327;BME280;71931;47.442;18.914;2023-07-31T18:47:54;99527.88;;;24.98;40.35
82327;BME280;71931;47.442;18.914;2023-07-31T18:50:19;99524.84;;;24.84;40.76
82327;BME280;71931;47.442;18.914;2023-07-31T18:52:45;99522.31;;;24.81;40.85
82327;BME280;71931;47.442;18.914;2023-07-31T18:55:10;99527.69;;;24.78;40.92
82327;BME280;71931;47.442;18.914;2023-07-31T18:57:35;99532.13;;;24.77;41.25
82327;BME280;71931;47.442;18.914;2023-07-31T19:00:01;99530.00;;;24.60;42.07
82327;BME280;71931;47.442;18.914;2023-07-31T19:02:26;99536.28;;;24.56;42.37
82327;BME280;71931;47.442;18.914;2023-07-31T19:04:51;99527.66;;;24.51;42.20
82327;BME280;71931;47.442;18.914;2023-07-31T19:07:16;99535.84;;;24.44;43.17
82327;BME280;71931;47.442;18.914;2023-07-31T19:09:42;99536.69;;;24.44;43.38
82327;BME280;71931;47.442;18.914;2023-07-31T19:12:07;99547.50;;;24.35;43.78
82327;BME280;71931;47.442;18.914;2023-07-31T19:14:33;99545.91;;;24.31;44.11
82327;BME280;71931;47.442;18.914;2023-07-31T19:16:59;99544.34;;;24.26;44.45
82327;BME280;71931;47.442;18.914;2023-07-31T19:19:24;99545.56;;;24.14;44.16
82327;BME280;71931;47.442;18.914;2023-07-31T19:21:49;99547.38;;;24.12;44.01
82327;BME280;71931;47.442;18.914;2023-07-31T19:24:15;99543.22;;;24.04;44.52
82327;BME280;71931;47.442;18.914;2023-07-31T19:26:40;99546.03;;;23.98;44.46
82327;BME280;71931;47.442;18.914;2023-07-31T19:29:09;99538.44;;;23.87;44.76
82327;BME280;71931;47.442;18.914;2023-07-31T19:31:36;99540.34;;;23.82;45.08
82327;BME280;71931;47.442;18.914;2023-07-31T19:34:02;99539.78;;;23.72;45.25
82327;BME280;71931;47.442;18.914;2023-07-31T19:36:27;99540.88;;;23.64;45.39
82327;BME280;71931;47.442;18.914;2023-07-31T19:38:52;99530.84;;;23.47;45.78
82327;BME280;71931;47.442;18.914;2023-07-31T19:41:18;99543.41;;;23.38;46.16
82327;BME280;71931;47.442;18.914;2023-07-31T19:43:43;99547.91;;;23.34;46.05
82327;BME280;71931;47.442;18.914;2023-07-31T19:46:08;99548.66;;;23.38;46.18
82327;BME280;71931;47.442;18.914;2023-07-31T19:48:34;99553.13;;;23.36;46.59
82327;BME280;71931;47.442;18.914;2023-07-31T19:50:59;99550.75;;;23.23;46.63
82327;BME280;71931;47.442;18.914;2023-07-31T19:53:24;99553.69;;;23.13;47.13
82327;BME280;71931;47.442;18.914;2023-07-31T19:55:49;99555.50;;;23.11;46.51
82327;BME280;71931;47.442;18.914;2023-07-31T19:58:15;99549.47;;;23.07;46.91
82327;BME280;71931;47.442;18.914;2023-07-31T20:00:41;99550.44;;;23.03;46.87
82327;BME280;71931;47.442;18.914;2023-07-31T20:03:06;99547.03;;;23.00;47.38
82327;BME280;71931;47.442;18.914;2023-07-31T20:05:31;99548.84;;;22.98;47.19
82327;BME280;71931;47.442;18.914;2023-07-31T20:07:56;99545.44;;;22.93;47.01
82327;BME280;71931;47.442;18.914;2023-07-31T20:10:22;99546.50;;;22.87;47.14
82327;BME280;71931;47.442;18.914;2023-07-31T20:12:47;99532.56;;;22.82;47.69
82327;BME280;71931;47.442;18.914;2023-07-31T20:15:20;99541.47;;;22.78;47.66
82327;BME280;71931;47.442;18.914;2023-07-31T20:17:46;99548.59;;;22.73;48.10
82327;BME280;71931;47.442;18.914;2023-07-31T20:20:11;99552.28;;;22.66;48.27
82327;BME280;71931;47.442;18.914;2023-07-31T20:22:37;99544.56;;;22.59;48.54
82327;BME280;71931;47.442;18.914;2023-07-31T20:25:02;99541.19;;;22.52;49.14
82327;BME280;71931;47.442;18.914;2023-07-31T20:27:28;99543.91;;;22.49;49.37
82327;BME280;71931;47.442;18.914;2023-07-31T20:29:53;99540.50;;;22.44;49.57
82327;BME280;71931;47.442;18.914;2023-07-31T20:32:18;99548.56;;;22.36;49.81
82327;BME280;71931;47.442;18.914;2023-07-31T20:34:44;99547.00;;;22.29;49.82
82327;BME280;71931;47.442;18.914;2023-07-31T20:37:09;99539.22;;;22.25;50.02
82327;BME280;71931;47.442;18.914;2023-07-31T20:39:34;99534.09;;;22.19;50.33
82327;BME280;71931;47.442;18.914;2023-07-31T20:42:00;99542.16;;;22.11;50.65
82327;BME280;71931;47.442;18.914;2023-07-31T20:44:25;99549.28;;;22.06;50.88
82327;BME280;71931;47.442;18.914;2023-07-31T20:46:50;99549.47;;;21.97;51.29
82327;BME280;71931;47.442;18.914;2023-07-31T20:49:16;99552.22;;;21.93;51.62
82327;BME280;71931;47.442;18.914;2023-07-31T20:51:41;99547.00;;;21.90;51.71
82327;BME280;71931;47.442;18.914;2023-07-31T20:54:09;99548.91;;;21.82;51.89
82327;BME280;71931;47.442;18.914;2023-07-31T20:56:34;99544.69;;;21.74;52.52
82327;BME280;71931;47.442;18.914;2023-07-31T20:58:59;99546.53;;;21.69;52.60
82327;BME280;71931;47.442;18.914;2023-07-31T21:01:25;99541.44;;;21.62;52.05
82327;BME280;71931;47.442;18.914;2023-07-31T21:03:50;99538.97;;;21.54;52.94
82327;BME280;71931;47.442;18.914;2023-07-31T21:06:16;99537.25;;;21.53;53.30
82327;BME280;71931;47.442;18.914;2023-07-31T21:08:44;99538.22;;;21.48;53.39
82327;BME280;71931;47.442;18.914;2023-07-31T21:11:09;99528.75;;;21.41;53.33
82327;BME280;71931;47.442;18.914;2023-07-31T21:13:35;99530.56;;;21.37;53.51
82327;BME280;71931;47.442;18.914;2023-07-31T21:16:00;99520.22;;;21.31;53.90
82327;BME280;71931;47.442;18.914;2023-07-31T21:18:25;99524.59;;;21.29;53.67
82327;BME280;71931;47.442;18.914;2023-07-31T21:20:51;99519.41;;;21.26;53.82
82327;BME280;71931;47.442;18.914;2023-07-31T21:23:16;99516.94;;;21.20;54.02
82327;BME280;71931;47.442;18.914;2023-07-31T21:25:42;99522.19;;;21.20;54.20
82327;BME280;71931;47.442;18.914;2023-07-31T21:28:07;99536.22;;;21.16;54.17
82327;BME280;71931;47.442;18.914;2023-07-31T21:30:35;99530.19;;;21.13;54.71
82327;BME280;71931;47.442;18.914;2023-07-31T21:33:01;99532.00;;;21.08;54.55
82327;BME280;71931;47.442;18.914;2023-07-31T21:35:26;99520.78;;;20.98;54.62
82327;BME280;71931;47.442;18.914;2023-07-31T21:37:52;99520.81;;;20.96;54.78
82327;BME280;71931;47.442;18.914;2023-07-31T21:40:18;99521.78;;;20.92;54.58
82327;BME280;71931;47.442;18.914;2023-07-31T21:42:43;99522.72;;;20.88;54.21
82327;BME280;71931;47.442;18.914;2023-07-31T21:45:09;99523.59;;;20.87;54.34
82327;BME280;71931;47.442;18.914;2023-07-31T21:47:34;99515.81;;;20.83;54.40
82327;BME280;71931;47.442;18.914;2023-07-31T21:50:00;99523.75;;;20.80;54.42
82327;BME280;71931;47.442;18.914;2023-07-31T21:52:25;99526.38;;;20.80;54.75
82327;BME280;71931;47.442;18.914;2023-07-31T21:54:50;99523.75;;;20.78;54.33
82327;BME280;71931;47.442;18.914;2023-07-31T21:57:16;99516.81;;;20.77;54.13
82327;BME280;71931;47.442;18.914;2023-07-31T21:59:41;99509.97;;;20.67;54.53
82327;BME280;71931;47.442;18.914;2023-07-31T22:02:06;99513.44;;;20.69;54.72
82327;BME280;71931;47.442;18.914;2023-07-31T22:04:32;99508.22;;;20.68;54.32
82327;BME280;71931;47.442;18.914;2023-07-31T22:06:57;99508.22;;;20.68;54.76
82327;BME280;71931;47.442;18.914;2023-07-31T22:09:23;99501.28;;;20.65;54.79
82327;BME280;71931;47.442;18.914;2023-07-31T22:11:48;99502.19;;;20.63;54.78
82327;BME280;71931;47.442;18.914;2023-07-31T22:14:13;99497.81;;;20.63;54.88
82327;BME280;71931;47.442;18.914;2023-07-31T22:16:38;99501.38;;;20.59;54.96
82327;BME280;71931;47.442;18.914;2023-07-31T22:19:04;99497.09;;;20.54;55.02
82327;BME280;71931;47.442;18.914;2023-07-31T22:21:31;99492.72;;;20.54;54.91
82327;BME280;71931;47.442;18.914;2023-07-31T22:23:56;99495.41;;;20.50;55.17
82327;BME280;71931;47.442;18.914;2023-07-31T22:26:21;99492.84;;;20.48;55.78
82327;BME280;71931;47.442;18.914;2023-07-31T22:28:47;99488.50;;;20.46;55.89
82327;BME280;71931;47.442;18.914;2023-07-31T22:31:12;99483.59;;;20.24;56.62
82327;BME280;71931;47.442;18.914;2023-07-31T22:33:37;99485.31;;;20.28;56.47
82327;BME280;71931;47.442;18.914;2023-07-31T22:36:02;99482.78;;;20.19;56.70
82327;BME280;71931;47.442;18.914;2023-07-31T22:38:28;99473.13;;;20.24;56.31
82327;BME280;71931;47.442;18.914;2023-07-31T22:40:53;99476.53;;;20.29;56.06
82327;BME280;71931;47.442;18.914;2023-07-31T22:43:18;99476.59;;;20.26;56.07
82327;BME280;71931;47.442;18.914;2023-07-31T22:45:45;99473.94;;;20.28;56.03
82327;BME280;71931;47.442;18.914;2023-07-31T22:48:11;99475.66;;;20.29;56.06
82327;BME280;71931;47.442;18.914;2023-07-31T22:50:36;99473.06;;;20.27;55.87
82327;BME280;71931;47.442;18.914;2023-07-31T22:53:01;99461.84;;;20.21;56.03
82327;BME280;71931;47.442;18.914;2023-07-31T22:55:27;99452.22;;;20.18;55.94
82327;BME280;71931;47.442;18.914;2023-07-31T22:57:52;99460.91;;;20.20;55.35
82327;BME280;71931;47.442;18.914;2023-07-31T23:00:17;99461.84;;;20.21;55.79
82327;BME280;71931;47.442;18.914;2023-07-31T23:02:42;99462.75;;;20.17;55.96
82327;BME280;71931;47.442;18.914;2023-07-31T23:05:08;99461.03;;;20.14;56.00
82327;BME280;71931;47.442;18.914;2023-07-31T23:07:33;99455.81;;;20.11;55.98
82327;BME280;71931;47.442;18.914;2023-07-31T23:09:59;99460.22;;;20.09;56.04
82327;BME280;71931;47.442;18.914;2023-07-31T23:12:24;99457.69;;;20.06;56.60
82327;BME280;71931;47.442;18.914;2023-07-31T23:14:49;99454.19;;;20.04;56.66
82327;BME280;71931;47.442;18.914;2023-07-31T23:17:15;99450.75;;;20.01;56.91
82327;BME280;71931;47.442;18.914;2023-07-31T23:19:40;99444.72;;;19.97;57.12
82327;BME280;71931;47.442;18.914;2023-07-31T23:22:06;99439.47;;;19.96;57.10
82327;BME280;71931;47.442;18.914;2023-07-31T23:24:31;99438.66;;;19.94;57.39
82327;BME280;71931;47.442;18.914;2023-07-31T23:26:56;99436.94;;;19.93;57.69
82327;BME280;71931;47.442;18.914;2023-07-31T23:29:22;99439.63;;;19.88;57.46
82327;BME280;71931;47.442;18.914;2023-07-31T23:31:47;99429.19;;;19.85;57.91
82327;BME280;71931;47.442;18.914;2023-07-31T23:34:12;99431.03;;;19.79;58.00
82327;BME280;71931;47.442;18.914;2023-07-31T23:36:38;99425.81;;;19.77;57.86
82327;BME280;71931;47.442;18.914;2023-07-31T23:39:03;99423.34;;;19.68;57.59
82327;BME280;71931;47.442;18.914;2023-07-31T23:41:28;99422.44;;;19.71;57.40
82327;BME280;71931;47.442;18.914;2023-07-31T23:43:54;99418.97;;;19.67;57.65
82327;BME280;71931;47.442;18.914;2023-07-31T23:46:19;99417.25;;;19.64;57.56
82327;BME280;71931;47.442;18.914;2023-07-31T23:48:44;99413.81;;;19.62;57.58
82327;BME280;71931;47.442;18.914;2023-07-31T23:51:09;99406.00;;;19.58;57.83
82327;BME280;71931;47.442;18.914;2023-07-31T23:53:35;99414.84;;;19.51;58.08
82327;BME280;71931;47.442;18.914;2023-07-31T23:56:01;99413.06;;;19.54;58.23
82327;BME280;71931;47.442;18.914;2023-07-31T23:58:27;99413.06;;;19.54;57.83
